Time;durP1;ratioP1;P1;durP2;ratioP2;P2;SDS_P1;SDS_P2;PMS_P1;PMS_P2;Temp;Humidity;BMP_temperature;BMP_pressure;BME280_temperature;BME280_humidity;BME280_pressure;Samples;Min_cycle;Max_cycle;Signal;HPM_P1;HPM_P2
2020/12/08 00:01:28;;;;;;;13.70;7.03;;;-2.20;99.90;;;;;;4863616;29;20193;-94
2020/12/08 00:03:54;;;;;;;18.73;7.03;;;-1.50;99.90;;;;;;4881191;29;20183;-94
2020/12/08 00:06:19;;;;;;;13.73;6.50;;;-2.20;99.90;;;;;;4864168;29;20212;-92
2020/12/08 00:08:45;;;;;;;17.00;8.00;;;-2.10;99.90;;;;;;4864909;29;20288;-93
2020/12/08 00:11:17;;;;;;;11.97;7.03;;;-2.10;99.90;;;;;;4881590;29;20189;-96
2020/12/08 00:13:44;;;;;;;12.57;6.60;;;-1.00;99.90;;;;;;4864589;29;20565;-94
2020/12/08 00:16:11;;;;;;;11.90;7.07;;;-0.80;99.90;;;;;;4880869;29;20280;-95
2020/12/08 00:18:40;;;;;;;14.00;7.20;;;-1.90;99.90;;;;;;4881939;29;20647;-96
2020/12/08 00:21:06;;;;;;;14.17;7.17;;;-2.10;99.90;;;;;;4887510;29;20213;-96
2020/12/08 00:23:32;;;;;;;15.70;7.07;;;-0.80;99.90;;;;;;4884159;29;20184;-96
2020/12/08 00:25:58;;;;;;;12.73;7.03;;;-1.90;99.90;;;;;;4871310;29;20218;-96
2020/12/08 00:28:24;;;;;;;13.10;7.47;;;-2.10;99.90;;;;;;4886009;29;20267;-96
2020/12/08 00:30:50;;;;;;;12.37;7.33;;;-1.60;99.90;;;;;;4884064;29;20190;-95
2020/12/08 00:33:16;;;;;;;12.77;7.37;;;-0.80;99.90;;;;;;4884515;29;20189;-96
2020/12/08 00:35:42;;;;;;;18.57;7.43;;;-2.10;99.90;;;;;;4881849;29;20233;-95
2020/12/08 00:38:08;;;;;;;20.90;7.90;;;-2.10;99.90;;;;;;4866137;29;20264;-96
2020/12/08 00:40:33;;;;;;;17.63;8.93;;;-1.70;99.90;;;;;;4886885;29;20196;-95
2020/12/08 00:42:59;;;;;;;15.50;6.63;;;-1.80;99.90;;;;;;4884242;29;20639;-96
2020/12/08 00:45:24;;;;;;;11.67;6.67;;;-2.00;99.90;;;;;;4867379;29;20702;-95
2020/12/08 00:47:50;;;;;;;11.47;6.97;;;-1.00;99.90;;;;;;4882973;29;20234;-95
2020/12/08 00:50:16;;;;;;;14.60;6.90;;;-1.80;99.90;;;;;;4879180;29;20190;-94
2020/12/08 00:52:42;;;;;;;10.60;6.13;;;-1.90;99.90;;;;;;4863188;29;20246;-94
2020/12/08 00:55:08;;;;;;;14.50;7.53;;;-2.00;99.90;;;;;;4864232;29;20191;-94
2020/12/08 00:57:34;;;;;;;14.13;6.67;;;-1.00;99.90;;;;;;4878914;29;20194;-95
2020/12/08 01:00:00;;;;;;;11.67;6.10;;;-2.00;99.90;;;;;;4881383;29;20704;-93
2020/12/08 01:02:25;;;;;;;12.87;6.93;;;-2.00;99.90;;;;;;4882149;29;20193;-95
2020/12/08 01:04:51;;;;;;;12.47;6.20;;;-1.20;99.90;;;;;;4867740;29;20269;-95
2020/12/08 01:07:17;;;;;;;11.63;6.63;;;-1.70;99.90;;;;;;4883725;29;20215;-96
2020/12/08 01:09:44;;;;;;;12.93;7.13;;;-2.00;99.90;;;;;;4869936;29;20199;-96
2020/12/08 01:12:09;;;;;;;12.07;6.20;;;-1.60;99.90;;;;;;4868845;29;20209;-95
2020/12/08 01:14:35;;;;;;;11.17;5.90;;;-2.00;99.90;;;;;;4869575;29;20250;-96
2020/12/08 01:17:03;;;;;;;12.40;7.37;;;-2.00;99.90;;;;;;4884633;29;20202;-96
2020/12/08 01:19:29;;;;;;;10.47;5.87;;;-2.00;99.90;;;;;;4883429;29;20192;-96
2020/12/08 01:21:55;;;;;;;13.40;6.07;;;-1.50;99.90;;;;;;4884691;29;20258;-96
2020/12/08 01:24:21;;;;;;;12.70;5.90;;;-1.90;99.90;;;;;;4884235;29;20186;-96
2020/12/08 01:26:47;;;;;;;10.40;5.40;;;-1.30;99.90;;;;;;4867972;29;20316;-96
2020/12/08 01:29:13;;;;;;;8.37;4.87;;;-2.00;99.90;;;;;;4883582;29;20220;-95
2020/12/08 01:31:39;;;;;;;8.53;5.30;;;-1.90;99.90;;;;;;4867743;29;20223;-96
2020/12/08 01:34:05;;;;;;;9.63;6.43;;;-1.90;99.90;;;;;;4882733;29;20637;-96
2020/12/08 01:36:30;;;;;;;11.27;6.60;;;-1.80;99.90;;;;;;4882646;29;20194;-96
2020/12/08 01:38:56;;;;;;;11.17;5.40;;;-1.60;99.90;;;;;;4881831;29;20643;-95
2020/12/08 01:41:22;;;;;;;7.43;4.00;;;-1.90;99.90;;;;;;4882605;29;20197;-95
2020/12/08 01:43:54;;;;;;;9.37;5.93;;;-2.00;99.90;;;;;;4883179;29;20232;-95
2020/12/08 01:46:23;;;;;;;8.70;4.90;;;-1.90;99.90;;;;;;4882284;29;20259;-95
2020/12/08 01:48:49;;;;;;;10.10;5.73;;;-1.90;99.90;;;;;;4882858;29;20268;-95
2020/12/08 01:51:17;;;;;;;10.73;6.20;;;-1.90;99.90;;;;;;4882391;29;20273;-96
2020/12/08 01:53:47;;;;;;;12.20;5.97;;;-1.40;99.90;;;;;;4882621;29;20187;-94
2020/12/08 01:56:14;;;;;;;10.13;5.23;;;-1.90;99.90;;;;;;4866904;29;20222;-95
2020/12/08 01:58:40;;;;;;;7.57;5.43;;;-1.00;99.90;;;;;;4866199;29;20201;-96
2020/12/08 02:01:08;;;;;;;10.30;5.53;;;-1.70;99.90;;;;;;4866043;29;20663;-93
2020/12/08 02:03:34;;;;;;;8.77;5.57;;;-1.70;99.90;;;;;;4865718;29;20550;-92
2020/12/08 02:05:59;;;;;;;10.77;5.53;;;-1.90;99.90;;;;;;4880865;29;20265;-93
2020/12/08 02:08:27;;;;;;;8.50;5.40;;;-1.90;99.90;;;;;;4881029;29;20194;-90
2020/12/08 02:10:53;;;;;;;12.03;5.43;;;-1.90;99.90;;;;;;4880904;29;20198;-93
2020/12/08 02:13:19;;;;;;;12.87;5.33;;;-1.40;99.90;;;;;;4880308;29;20327;-95
2020/12/08 02:15:45;;;;;;;10.47;6.53;;;-0.90;99.90;;;;;;4865315;29;20203;-95
2020/12/08 02:18:11;;;;;;;10.97;5.70;;;-0.50;99.90;;;;;;4880809;29;20242;-95
2020/12/08 02:20:37;;;;;;;7.60;5.57;;;-1.90;99.90;;;;;;4881726;29;20186;-93
2020/12/08 02:23:02;;;;;;;11.33;6.03;;;-1.20;99.90;;;;;;4880999;29;20213;-92
2020/12/08 02:25:28;;;;;;;10.27;5.93;;;-1.50;99.90;;;;;;4881453;29;20193;-91
2020/12/08 02:27:53;;;;;;;10.30;6.50;;;-1.30;99.90;;;;;;4865319;29;20310;-93
2020/12/08 02:30:19;;;;;;;7.47;5.03;;;-0.90;99.90;;;;;;4881818;29;20188;-93
2020/12/08 02:32:45;;;;;;;6.20;3.83;;;-2.00;99.90;;;;;;4880458;29;20246;-94
2020/12/08 02:35:11;;;;;;;7.50;4.90;;;-1.60;99.90;;;;;;4880838;29;20182;-93
2020/12/08 02:37:37;;;;;;;13.37;8.33;;;-2.00;99.90;;;;;;4880360;29;20186;-93
2020/12/08 02:40:06;;;;;;;6.87;5.63;;;-1.80;99.90;;;;;;4881432;29;20181;-95
2020/12/08 02:42:32;;;;;;;10.07;5.70;;;-2.00;99.90;;;;;;4881536;29;20179;-95
2020/12/08 02:44:58;;;;;;;9.07;5.40;;;-2.00;99.90;;;;;;4883636;29;20191;-93
2020/12/08 02:47:24;;;;;;;8.73;5.80;;;-0.50;99.90;;;;;;4867456;29;20212;-94
2020/12/08 02:49:50;;;;;;;10.53;6.23;;;-1.90;99.90;;;;;;4887767;29;20218;-95
2020/12/08 02:52:15;;;;;;;8.83;5.63;;;-1.40;99.90;;;;;;4892854;29;20199;-93
2020/12/08 02:54:42;;;;;;;8.83;5.30;;;0.00;99.90;;;;;;4893596;29;20665;-94
2020/12/08 02:57:08;;;;;;;13.07;6.13;;;-1.90;99.90;;;;;;4886545;29;20209;-91
2020/12/08 02:59:34;;;;;;;11.53;6.90;;;-0.20;99.90;;;;;;4903604;29;20185;-91
2020/12/08 03:02:00;;;;;;;13.97;7.40;;;-1.90;99.90;;;;;;4904357;29;20173;-90
2020/12/08 03:04:26;;;;;;;7.67;4.97;;;-0.80;99.90;;;;;;4888204;29;20191;-93
2020/12/08 03:06:51;;;;;;;9.93;5.87;;;-1.10;99.90;;;;;;4903775;29;20217;-93
2020/12/08 03:09:17;;;;;;;12.57;5.67;;;-1.70;99.90;;;;;;4901222;29;20186;-93
2020/12/08 03:11:43;;;;;;;10.63;5.57;;;-1.90;99.90;;;;;;4898243;29;20606;-94
2020/12/08 03:14:09;;;;;;;14.47;5.40;;;-1.90;99.90;;;;;;4883866;29;20244;-93
2020/12/08 03:16:35;;;;;;;9.37;5.97;;;-1.00;99.90;;;;;;4903283;29;20167;-90
2020/12/08 03:19:01;;;;;;;9.50;5.77;;;-1.20;99.90;;;;;;4888174;29;20162;-92
2020/12/08 03:21:27;;;;;;;11.83;6.57;;;-1.60;99.90;;;;;;4903436;29;20253;-94
2020/12/08 03:23:52;;;;;;;9.03;5.20;;;-1.60;99.90;;;;;;4902193;29;20165;-94
2020/12/08 03:26:22;;;;;;;7.23;5.33;;;-1.90;99.90;;;;;;4867606;29;20547;-93
2020/12/08 03:28:48;;;;;;;9.53;4.90;;;-1.80;99.90;;;;;;4863778;29;20199;-94
2020/12/08 03:31:15;;;;;;;12.47;5.37;;;-2.00;99.90;;;;;;4879806;29;20183;-94
2020/12/08 03:33:41;;;;;;;7.80;4.90;;;-1.60;99.90;;;;;;4879406;29;20185;-94
2020/12/08 03:36:14;;;;;;;7.90;5.23;;;-2.00;99.90;;;;;;4880580;29;20692;-94
2020/12/08 03:38:41;;;;;;;10.37;5.43;;;-2.00;99.90;;;;;;4880373;29;20216;-94
2020/12/08 03:41:08;;;;;;;6.70;4.60;;;-1.90;99.90;;;;;;4880599;29;20540;-94
2020/12/08 03:43:33;;;;;;;7.23;5.17;;;-2.00;99.90;;;;;;4880384;29;20185;-94
2020/12/08 03:45:59;;;;;;;9.27;5.03;;;-2.00;99.90;;;;;;4880536;29;20279;-93
2020/12/08 03:48:26;;;;;;;13.23;5.67;;;-1.80;99.90;;;;;;4869446;29;20202;-93
2020/12/08 03:50:52;;;;;;;9.53;5.87;;;-1.90;99.90;;;;;;4865693;29;20551;-92
2020/12/08 03:53:18;;;;;;;9.30;4.83;;;-1.10;99.90;;;;;;4864013;29;20197;-93
2020/12/08 03:55:44;;;;;;;8.30;4.87;;;-1.90;99.90;;;;;;4878875;29;20633;-93
2020/12/08 03:58:10;;;;;;;9.70;5.53;;;-2.00;99.90;;;;;;4864178;29;20202;-94
2020/12/08 04:00:35;;;;;;;8.40;5.30;;;-1.90;99.90;;;;;;4878895;29;20195;-92
2020/12/08 04:03:01;;;;;;;11.37;6.10;;;-0.60;99.90;;;;;;4879169;29;20575;-94
2020/12/08 04:05:27;;;;;;;14.23;5.80;;;-1.80;99.90;;;;;;4880735;29;20533;-94
2020/12/08 04:07:52;;;;;;;11.83;6.17;;;-1.40;99.90;;;;;;4863178;29;20225;-94
2020/12/08 04:10:18;;;;;;;8.93;4.97;;;-1.90;99.90;;;;;;4878646;29;20193;-92
2020/12/08 04:12:44;;;;;;;12.03;6.53;;;-2.00;99.90;;;;;;4881662;29;20201;-95
2020/12/08 04:15:10;;;;;;;11.17;7.50;;;-1.60;99.90;;;;;;4867038;29;20254;-95
2020/12/08 04:17:35;;;;;;;17.00;7.47;;;-1.40;99.90;;;;;;4879619;29;20204;-93
2020/12/08 04:20:01;;;;;;;14.30;7.73;;;-0.90;99.90;;;;;;4864622;29;20191;-94
2020/12/08 04:22:27;;;;;;;12.03;6.60;;;-1.10;99.90;;;;;;4879721;29;20623;-92
2020/12/08 04:24:52;;;;;;;11.60;6.97;;;-1.70;99.90;;;;;;4880144;29;20534;-94
2020/12/08 04:27:18;;;;;;;10.63;6.07;;;-1.20;99.90;;;;;;4885401;29;20213;-92
2020/12/08 04:29:44;;;;;;;11.80;6.43;;;-2.00;99.90;;;;;;4886972;29;20197;-93
2020/12/08 04:32:09;;;;;;;11.93;6.47;;;-1.20;99.90;;;;;;4884805;29;20240;-94
2020/12/08 04:34:35;;;;;;;9.63;6.10;;;-1.40;99.90;;;;;;4868942;29;20692;-90
2020/12/08 04:37:05;;;;;;;10.47;6.33;;;-1.20;99.90;;;;;;4891795;29;20187;-95
2020/12/08 04:39:33;;;;;;;9.63;6.10;;;-1.80;99.90;;;;;;4890568;29;20190;-93
2020/12/08 04:41:59;;;;;;;11.17;6.83;;;-3.40;99.90;;;;;;4896986;29;20180;-93
2020/12/08 04:44:26;;;;;;;12.67;6.53;;;-2.00;99.90;;;;;;4897938;29;20185;-94
2020/12/08 04:46:56;;;;;;;11.73;6.30;;;-2.40;99.90;;;;;;4895880;29;20675;-93
2020/12/08 04:49:23;;;;;;;9.90;6.73;;;-2.00;99.90;;;;;;4895125;29;20219;-93
2020/12/08 04:51:49;;;;;;;14.47;6.93;;;-1.90;99.90;;;;;;4888369;29;20276;-96
2020/12/08 04:54:15;;;;;;;8.93;5.30;;;-1.90;99.90;;;;;;4886710;29;20213;-95
2020/12/08 04:56:44;;;;;;;10.07;5.97;;;-0.10;99.90;;;;;;4885478;29;20189;-95
2020/12/08 04:59:22;;;;;;;11.70;5.53;;;-2.00;99.90;;;;;;4894967;29;20190;-96
2020/12/08 05:01:50;;;;;;;8.97;4.83;;;-2.00;99.90;;;;;;4899692;29;20203;-96
2020/12/08 05:04:25;;;;;;;9.50;5.57;;;-1.90;99.90;;;;;;4885992;29;20186;-93
2020/12/08 05:07:17;;;;;;;7.53;5.40;;;-2.00;99.90;;;;;;4887110;29;20254;-95
2020/12/08 05:09:46;;;;;;;9.03;4.97;;;-2.60;99.90;;;;;;4886518;29;20253;-95
2020/12/08 05:12:18;;;;;;;8.13;5.10;;;-1.50;99.90;;;;;;4886300;29;20223;-95
2020/12/08 05:14:44;;;;;;;10.47;5.23;;;1.00;99.90;;;;;;4884368;29;20240;-94
2020/12/08 05:17:10;;;;;;;7.80;5.50;;;-1.20;99.90;;;;;;4885170;29;20713;-94
2020/12/08 05:19:35;;;;;;;9.87;6.10;;;-1.00;99.90;;;;;;4887234;29;20270;-94
2020/12/08 05:22:01;;;;;;;10.07;6.00;;;-1.50;99.90;;;;;;4882784;29;20188;-94
2020/12/08 05:24:31;;;;;;;7.97;5.27;;;-1.60;99.90;;;;;;4882493;29;20553;-94
2020/12/08 05:27:04;;;;;;;7.20;4.93;;;-1.70;99.90;;;;;;4884840;29;20248;-94
2020/12/08 05:29:32;;;;;;;8.63;4.93;;;-2.00;99.90;;;;;;4883509;29;20206;-94
2020/12/08 05:32:18;;;;;;;10.73;4.70;;;-1.60;99.90;;;;;;4883573;29;20309;-94
2020/12/08 05:34:51;;;;;;;8.17;4.00;;;-1.90;99.90;;;;;;4884261;29;20197;-94
2020/12/08 05:37:18;;;;;;;6.60;4.37;;;-1.80;99.90;;;;;;4883204;29;20197;-94
2020/12/08 05:39:45;;;;;;;7.20;4.13;;;-1.90;99.90;;;;;;4882587;29;20202;-94
2020/12/08 05:42:19;;;;;;;12.20;5.73;;;-1.90;99.90;;;;;;4882875;29;20183;-93
2020/12/08 05:44:52;;;;;;;9.67;4.63;;;0.10;99.90;;;;;;4881404;29;20187;-93
2020/12/08 05:47:21;;;;;;;18.00;8.00;;;-1.80;99.90;;;;;;4881715;29;20280;-92
2020/12/08 05:49:59;;;;;;;9.73;5.07;;;-0.70;99.90;;;;;;4880781;29;20202;-94
2020/12/08 05:52:39;;;;;;;8.30;4.43;;;-1.80;99.90;;;;;;4889511;29;20232;-95
2020/12/08 05:55:21;;;;;;;12.27;5.70;;;-2.10;99.90;;;;;;4890074;29;20175;-95
2020/12/08 05:57:48;;;;;;;10.37;5.90;;;-1.60;99.90;;;;;;4888371;29;20202;-93
2020/12/08 06:00:28;;;;;;;6.90;4.63;;;0.00;99.90;;;;;;4881361;29;20182;-85
2020/12/08 06:03:15;;;;;;;15.67;8.90;;;-0.10;99.90;;;;;;4877380;29;20280;-86
2020/12/08 06:05:42;;;;;;;13.37;7.40;;;0.30;99.90;;;;;;4875567;29;20665;-87
2020/12/08 06:08:12;;;;;;;10.83;6.30;;;0.70;99.90;;;;;;4879947;29;20209;-93
2020/12/08 06:10:54;;;;;;;11.90;6.53;;;0.40;99.90;;;;;;4889630;29;20188;-92
2020/12/08 06:13:24;;;;;;;14.80;7.63;;;-0.40;99.90;;;;;;4863821;29;20241;-92
2020/12/08 06:15:50;;;;;;;20.77;9.03;;;-0.90;99.90;;;;;;4879422;29;20321;-94
2020/12/08 06:18:26;;;;;;;19.37;9.60;;;-1.10;99.90;;;;;;4881213;29;20685;-94
2020/12/08 06:20:55;;;;;;;59.17;18.00;;;-1.00;99.90;;;;;;4893623;29;20182;-92
2020/12/08 06:23:23;;;;;;;20.33;8.17;;;-1.10;99.90;;;;;;4889070;29;20200;-92
2020/12/08 06:25:56;;;;;;;16.47;8.50;;;-1.50;99.90;;;;;;4883448;29;20192;-94
2020/12/08 06:28:25;;;;;;;16.90;7.63;;;0.10;99.90;;;;;;4860720;29;20197;-93
2020/12/08 06:31:11;;;;;;;45.67;17.17;;;-1.60;99.90;;;;;;4877666;29;20197;-93
2020/12/08 06:33:51;;;;;;;16.20;8.63;;;-1.60;99.90;;;;;;4890735;29;20195;-94
2020/12/08 06:36:34;;;;;;;27.40;13.07;;;-1.40;99.90;;;;;;4894887;29;20209;-96
2020/12/08 06:39:10;;;;;;;26.57;12.77;;;-1.50;99.90;;;;;;4889461;29;20215;-94
2020/12/08 06:41:44;;;;;;;18.80;8.70;;;-1.50;99.90;;;;;;4893088;29;20242;-95
2020/12/08 06:44:14;;;;;;;25.20;10.33;;;-1.00;99.90;;;;;;4876596;29;20181;-95
2020/12/08 06:46:59;;;;;;;30.80;8.97;;;-1.60;99.90;;;;;;4887226;29;20221;-94
2020/12/08 06:49:42;;;;;;;25.40;11.97;;;-1.40;99.90;;;;;;4895018;29;20188;-95
2020/12/08 06:52:16;;;;;;;23.10;10.07;;;-0.50;99.90;;;;;;4900967;29;20266;-96
2020/12/08 06:54:42;;;;;;;16.07;8.53;;;;;;;;;;4946564;23;20254;-92
2020/12/08 06:57:08;;;;;;;25.27;10.57;;;;;;;;;;4883965;29;20698;-95
2020/12/08 06:59:34;;;;;;;23.50;9.93;;;;;;;;;;4866306;29;20189;-95
2020/12/08 07:02:05;;;;;;;40.57;15.33;;;-1.60;99.90;;;;;;4884431;29;20178;-96
2020/12/08 07:04:31;;;;;;;30.17;12.27;;;;;;;;;;4885545;29;20191;-96
2020/12/08 07:07:03;;;;;;;15.87;8.03;;;-1.60;99.90;;;;;;4888118;29;20220;-95
2020/12/08 07:09:33;;;;;;;21.57;8.97;;;-1.40;99.90;;;;;;4886926;29;20592;-96
2020/12/08 07:12:03;;;;;;;16.20;9.23;;;-0.90;99.90;;;;;;4883784;29;20196;-95
2020/12/08 07:14:39;;;;;;;23.33;10.27;;;-1.50;99.90;;;;;;4887946;29;20173;-95
2020/12/08 07:17:07;;;;;;;23.43;9.80;;;;;;;;;;4874054;29;20200;-94
2020/12/08 07:19:35;;;;;;;27.50;11.80;;;-1.50;99.90;;;;;;4889663;29;20198;-96
2020/12/08 07:22:09;;;;;;;16.57;8.17;;;-1.60;99.90;;;;;;4890374;29;20182;-93
2020/12/08 07:24:42;;;;;;;17.07;8.57;;;-1.70;99.90;;;;;;4893788;29;20185;-95
2020/12/08 07:27:11;;;;;;;19.43;8.63;;;-1.10;99.90;;;;;;4892154;29;20272;-94
2020/12/08 07:29:40;;;;;;;21.80;10.47;;;-1.50;99.90;;;;;;4871167;29;20651;-90
2020/12/08 07:32:08;;;;;;;21.23;9.03;;;-1.60;99.90;;;;;;4863276;29;20197;-92
2020/12/08 07:34:34;;;;;;;18.57;8.73;;;;;;;;;;4878910;29;20180;-92
2020/12/08 07:37:01;;;;;;;30.03;13.53;;;;;;;;;;4878548;29;20627;-92
2020/12/08 07:39:31;;;;;;;31.03;13.17;;;-1.50;99.90;;;;;;4878545;29;20648;-93
2020/12/08 07:42:04;;;;;;;41.90;13.97;;;-1.40;99.90;;;;;;4878489;29;20229;-94
2020/12/08 07:44:30;;;;;;;20.60;9.53;;;;;;;;;;4863682;29;20195;-92
2020/12/08 07:46:56;;;;;;;22.43;10.77;;;;;;;;;;4878610;29;20213;-93
2020/12/08 07:49:24;;;;;;;18.53;8.47;;;-1.50;99.90;;;;;;4879968;29;20671;-92
2020/12/08 07:51:51;;;;;;;21.27;9.50;;;-0.90;99.90;;;;;;4878777;29;20209;-94
2020/12/08 07:57:39;;;;;;;24.33;11.57;;;;;;;;;;4880863;29;20177;-91
2020/12/08 08:00:13;;;;;;;33.73;16.13;;;-1.40;99.90;;;;;;4878736;29;20286;-94
2020/12/08 08:02:41;;;;;;;24.17;10.50;;;-1.40;99.90;;;;;;4864155;29;20190;-93
2020/12/08 08:05:09;;;;;;;15.93;8.57;;;;;;;;;;4863111;29;20275;-92
2020/12/08 08:07:35;;;;;;;29.47;12.43;;;;;;;;;;4863305;29;20688;-91
2020/12/08 08:10:01;;;;;;;21.77;11.60;;;;;;;;;;4877988;29;20281;-92
2020/12/08 08:12:27;;;;;;;41.00;16.57;;;;;;;;;;4878232;29;20194;-93
2020/12/08 08:14:56;;;;;;;27.77;13.57;;;-1.30;99.90;;;;;;4878049;29;20237;-91
2020/12/08 08:17:22;;;;;;;34.70;15.10;;;-1.30;99.90;;;;;;4859899;29;20195;-92
2020/12/08 08:19:48;;;;;;;29.97;14.10;;;-1.10;99.90;;;;;;4857388;29;20201;-92
2020/12/08 08:22:16;;;;;;;28.57;10.47;;;-1.30;99.90;;;;;;4862567;29;20190;-96
2020/12/08 08:24:42;;;;;;;20.60;10.57;;;;;;;;;;4877573;29;20190;-92
2020/12/08 08:27:10;;;;;;;29.93;14.33;;;-1.30;99.90;;;;;;4878572;29;20294;-90
2020/12/08 08:29:36;;;;;;;23.30;11.90;;;-1.30;99.90;;;;;;4862149;29;20215;-91
2020/12/08 08:32:02;;;;;;;23.90;10.00;;;;;;;;;;4876720;29;20670;-90
2020/12/08 08:34:28;;;;;;;19.57;10.23;;;;;;;;;;4862332;29;20196;-92
2020/12/08 08:36:55;;;;;;;21.43;9.70;;;-1.20;99.90;;;;;;4861918;29;20220;-91
2020/12/08 08:39:22;;;;;;;22.27;10.10;;;-1.30;99.90;;;;;;4877009;29;20238;-90
2020/12/08 08:41:48;;;;;;;22.07;9.63;;;-1.10;99.90;;;;;;4877148;29;20194;-89
2020/12/08 08:44:14;;;;;;;21.80;11.03;;;-1.00;99.90;;;;;;4877563;29;20179;-87
2020/12/08 08:46:43;;;;;;;15.63;8.03;;;-1.20;99.90;;;;;;4869455;29;20238;-89
2020/12/08 08:49:14;;;;;;;22.57;10.20;;;;;;;;;;4864112;29;20189;-89
2020/12/08 08:51:42;;;;;;;23.27;11.20;;;-1.20;99.90;;;;;;4877773;29;20223;-89
2020/12/08 08:54:09;;;;;;;24.00;10.93;;;0.20;99.90;;;;;;4877560;29;20267;-91
2020/12/08 08:56:35;;;;;;;24.70;11.40;;;;;;;;;;4879002;29;20186;-90
2020/12/08 08:59:01;;;;;;;23.00;10.93;;;;;;;;;;4879597;29;20238;-90
2020/12/08 09:01:27;;;;;;;34.17;13.07;;;;;;;;;;4877175;29;20182;-89
2020/12/08 09:03:52;;;;;;;28.90;14.37;;;-1.20;99.90;;;;;;4861489;29;20201;-89
2020/12/08 09:06:18;;;;;;;37.07;14.40;;;-1.10;99.90;;;;;;4880668;29;20300;-90
2020/12/08 09:08:44;;;;;;;30.80;12.93;;;-1.20;99.90;;;;;;4862295;29;20215;-90
2020/12/08 09:11:10;;;;;;;30.30;12.17;;;;;;;;;;4877556;29;20247;-89
2020/12/08 09:13:36;;;;;;;29.33;12.70;;;;;;;;;;4879026;29;20191;-90
2020/12/08 09:16:03;;;;;;;34.67;13.37;;;;;;;;;;4862311;29;20189;-90
2020/12/08 09:18:31;;;;;;;23.17;11.43;;;;;;;;;;4877174;29;20687;-89
2020/12/08 09:20:57;;;;;;;32.80;13.17;;;-1.10;99.90;;;;;;4877066;29;20242;-89
2020/12/08 09:23:25;;;;;;;31.03;14.20;;;-1.10;99.90;;;;;;4864949;29;20192;-90
2020/12/08 09:25:57;;;;;;;36.03;14.57;;;-1.10;99.90;;;;;;4880518;29;20593;-88
2020/12/08 09:28:24;;;;;;;31.40;11.87;;;-1.10;99.90;;;;;;4880428;29;20598;-90
2020/12/08 09:30:50;;;;;;;33.73;14.20;;;;;;;;;;4880874;29;20220;-90
2020/12/08 09:33:16;;;;;;;30.73;15.30;;;;;;;;;;4865251;29;20637;-88
2020/12/08 09:35:42;;;;;;;38.80;14.67;;;;;;;;;;4880805;29;20242;-89
2020/12/08 09:38:08;;;;;;;85.00;25.67;;;;;;;;;;4880962;29;20263;-89
2020/12/08 09:40:41;;;;;;;66.87;23.00;;;-1.00;99.90;;;;;;4866282;29;20193;-91
2020/12/08 09:43:07;;;;;;;100.33;33.03;;;;;;;;;;4866152;29;20200;-89
2020/12/08 09:45:37;;;;;;;35.70;15.67;;;-1.10;99.90;;;;;;4866056;29;20198;-91
2020/12/08 09:48:05;;;;;;;38.03;16.00;;;-1.10;99.90;;;;;;4881280;29;20314;-91
2020/12/08 09:50:32;;;;;;;28.20;12.27;;;-0.80;99.90;;;;;;4883160;29;20188;-94
2020/12/08 09:56:08;;;;;;;32.57;14.30;;;-1.10;99.90;;;;;;4882363;29;20186;-91
2020/12/08 09:58:37;;;;;;;46.70;20.40;;;-1.00;99.90;;;;;;4882108;29;20201;-92
2020/12/08 10:01:05;;;;;;;30.90;14.30;;;1.50;99.90;;;;;;4881874;29;20222;-91
2020/12/08 10:03:31;;;;;;;39.83;16.50;;;-0.60;99.90;;;;;;4865956;29;20243;-92
2020/12/08 10:05:58;;;;;;;41.97;17.27;;;-0.10;99.90;;;;;;4865722;29;20582;-89
2020/12/08 10:08:31;;;;;;;46.80;18.97;;;-1.00;99.90;;;;;;4880882;29;20182;-93
2020/12/08 10:10:57;;;;;;;50.23;19.37;;;-0.30;99.90;;;;;;4881623;29;20204;-94
2020/12/08 10:13:23;;;;;;;42.53;17.03;;;;;;;;;;4886867;29;20639;-92
2020/12/08 10:15:49;;;;;;;45.17;18.23;;;;;;;;;;4882002;29;20194;-90
2020/12/08 10:18:15;;;;;;;37.63;17.10;;;;;;;;;;4867822;29;20655;-90
2020/12/08 10:20:44;;;;;;;35.13;15.00;;;-1.00;99.90;;;;;;4883472;29;20191;-91
2020/12/08 10:23:10;;;;;;;28.83;13.20;;;-1.00;99.90;;;;;;4881071;29;20191;-93
2020/12/08 10:25:36;;;;;;;27.53;14.30;;;0.00;99.90;;;;;;4885071;29;20246;-94
2020/12/08 10:28:02;;;;;;;28.87;14.87;;;-1.00;99.90;;;;;;4882940;29;20284;-90
2020/12/08 10:30:28;;;;;;;26.37;14.60;;;-0.80;99.90;;;;;;4880377;29;20196;-90
2020/12/08 10:32:54;;;;;;;46.83;19.07;;;-0.80;99.90;;;;;;4880776;29;20280;-91
2020/12/08 10:35:20;;;;;;;30.57;14.97;;;;;;;;;;4880271;29;20209;-92
2020/12/08 10:37:48;;;;;;;32.70;15.57;;;-0.90;99.90;;;;;;4880889;29;20200;-89
2020/12/08 10:40:14;;;;;;;32.60;14.53;;;-0.80;99.90;;;;;;4888059;29;20189;-89
2020/12/08 10:42:40;;;;;;;45.87;18.40;;;;;;;;;;4890818;29;20250;-87
2020/12/08 10:45:06;;;;;;;72.90;24.37;;;;;;;;;;4888166;29;20239;-89
2020/12/08 10:47:34;;;;;;;60.23;23.27;;;-0.90;99.90;;;;;;4895722;29;20209;-90
2020/12/08 10:50:00;;;;;;;65.13;26.67;;;;;;;;;;4873132;29;20211;-87
2020/12/08 10:52:29;;;;;;;45.70;19.17;;;-0.90;99.90;;;;;;4882595;29;20277;-92
2020/12/08 10:54:55;;;;;;;42.33;20.63;;;-0.80;99.90;;;;;;4881538;29;20233;-92
2020/12/08 10:57:20;;;;;;;37.53;19.20;;;-0.80;99.90;;;;;;4880156;29;20409;-88
2020/12/08 10:59:47;;;;;;;28.60;13.10;;;-0.10;99.90;;;;;;4877407;29;20473;-89
2020/12/08 11:02:13;;;;;;;43.07;18.97;;;-0.90;99.90;;;;;;4894123;29;20180;-89
2020/12/08 11:04:39;;;;;;;36.53;17.00;;;-0.90;99.90;;;;;;4882239;29;20227;-88
2020/12/08 11:07:05;;;;;;;31.90;13.70;;;0.30;99.90;;;;;;4875993;29;20218;-90
2020/12/08 11:09:31;;;;;;;29.13;14.70;;;;;;;;;;4886693;29;20211;-93
2020/12/08 11:11:57;;;;;;;32.20;15.23;;;-0.80;99.90;;;;;;4869932;29;20192;-93
2020/12/08 11:14:22;;;;;;;31.63;15.27;;;0.10;99.90;;;;;;4888774;29;20190;-93
2020/12/08 11:16:48;;;;;;;43.47;18.67;;;0.70;99.90;;;;;;4880957;29;20191;-92
2020/12/08 11:19:14;;;;;;;45.90;19.03;;;-1.40;99.90;;;;;;4864648;29;20194;-92
2020/12/08 11:21:42;;;;;;;43.17;20.13;;;-0.70;99.90;;;;;;4866740;29;20192;-92
2020/12/08 11:24:11;;;;;;;49.03;21.33;;;;;;;;;;4881928;29;20328;-92
2020/12/08 11:26:37;;;;;;;53.67;22.93;;;;;;;;;;4879654;29;20221;-94
2020/12/08 11:29:05;;;;;;;46.53;19.77;;;;;;;;;;4879728;29;20596;-93
2020/12/08 11:31:31;;;;;;;39.20;18.60;;;;;;;;;;4879952;29;20186;-92
2020/12/08 11:33:59;;;;;;;50.80;19.53;;;;;;;;;;4880155;29;20528;-90
2020/12/08 11:36:25;;;;;;;52.77;24.57;;;;;;;;;;4880237;29;20703;-87
2020/12/08 11:38:54;;;;;;;95.00;38.03;;;;;;;;;;4879301;29;20190;-91
2020/12/08 11:41:20;;;;;;;46.80;21.23;;;;;;;;;;4879162;29;20210;-92
2020/12/08 11:43:46;;;;;;;44.70;20.23;;;-1.00;99.90;;;;;;4863751;29;20198;-90
2020/12/08 11:46:12;;;;;;;45.80;18.07;;;-1.10;99.90;;;;;;4863040;29;20213;-91
2020/12/08 11:48:40;;;;;;;33.77;17.40;;;-1.00;99.90;;;;;;4881160;29;20193;-94
2020/12/08 11:51:06;;;;;;;41.93;19.37;;;;;;;;;;4879004;29;20245;-91
2020/12/08 11:53:32;;;;;;;43.43;19.80;;;-1.10;99.90;;;;;;4878573;29;20228;-94
2020/12/08 11:56:00;;;;;;;47.40;18.50;;;0.30;99.90;;;;;;4863920;29;20190;-93
2020/12/08 11:58:26;;;;;;;44.47;20.77;;;;;;;;;;4864746;29;20236;-94
2020/12/08 12:00:52;;;;;;;39.77;18.10;;;;;;;;;;4881023;29;20182;-93
2020/12/08 12:03:21;;;;;;;44.07;20.40;;;;;;;;;;4880993;29;20192;-94
2020/12/08 12:05:49;;;;;;;37.73;16.57;;;;;;;;;;4868005;29;20196;-94
2020/12/08 12:08:15;;;;;;;42.70;18.80;;;;;;;;;;4878879;29;20674;-96
2020/12/08 12:10:41;;;;;;;36.30;17.60;;;-1.00;99.90;;;;;;4879318;29;20226;-94
2020/12/08 12:13:07;;;;;;;41.67;19.47;;;-1.40;99.90;;;;;;4880775;29;20213;-94
2020/12/08 12:15:33;;;;;;;47.17;19.83;;;;;;;;;;4878824;29;20173;-92
2020/12/08 12:17:59;;;;;;;60.20;25.60;;;;;;;;;;4878974;29;20187;-95
2020/12/08 12:20:25;;;;;;;48.20;20.93;;;;;;;;;;4864341;29;20548;-95
2020/12/08 12:22:51;;;;;;;47.73;19.07;;;;;;;;;;4879041;29;20186;-94
2020/12/08 12:25:17;;;;;;;53.57;22.67;;;;;;;;;;4863903;29;20235;-94
2020/12/08 12:27:44;;;;;;;46.70;20.17;;;-1.10;99.90;;;;;;4878476;29;20205;-95
2020/12/08 12:30:12;;;;;;;46.10;18.53;;;-1.20;99.90;;;;;;4863591;29;20620;-92
2020/12/08 12:32:39;;;;;;;43.07;19.13;;;;;;;;;;4844529;29;20186;-92
2020/12/08 12:35:05;;;;;;;39.30;18.37;;;;;;;;;;4866795;29;20246;-91
2020/12/08 12:37:31;;;;;;;52.30;19.53;;;;;;;;;;4878994;29;20184;-89
2020/12/08 12:39:58;;;;;;;36.97;17.93;;;-1.10;99.90;;;;;;4862595;29;20196;-90
2020/12/08 12:42:27;;;;;;;38.57;17.73;;;-1.20;99.90;;;;;;4877586;29;20636;-90
2020/12/08 12:44:54;;;;;;;45.77;20.00;;;-1.20;99.90;;;;;;4862631;29;20182;-91
2020/12/08 12:47:21;;;;;;;40.73;17.33;;;;;;;;;;4877330;29;20205;-88
2020/12/08 12:49:47;;;;;;;44.37;19.73;;;;;;;;;;4877165;29;20190;-91
2020/12/08 12:52:13;;;;;;;36.50;15.83;;;;;;;;;;4877835;29;20200;-91
2020/12/08 12:54:39;;;;;;;40.43;16.00;;;;;;;;;;4876614;29;20234;-87
2020/12/08 12:57:10;;;;;;;46.77;18.70;;;-1.30;99.90;;;;;;4881803;29;20252;-92
2020/12/08 12:59:36;;;;;;;48.97;19.03;;;;;;;;;;4866637;29;20190;-91
2020/12/08 13:02:04;;;;;;;54.07;20.60;;;;;;;;;;4882820;29;20193;-92
2020/12/08 13:04:30;;;;;;;51.80;20.83;;;;;;;;;;4881817;29;20248;-95